sensor_id;sensor_type;location;lat;lon;timestamp;temperature;humidity
36800;DHT22;22752;51.960;5.886;2022-08-25T00:01:43;23.60;96.90
36800;DHT22;22752;51.960;5.886;2022-08-25T00:04:12;23.60;96.60
36800;DHT22;22752;51.960;5.886;2022-08-25T00:06:40;23.60;96.60
36800;DHT22;22752;51.960;5.886;2022-08-25T00:09:08;23.50;96.50
36800;DHT22;22752;51.960;5.886;2022-08-25T00:11:35;23.50;96.50
36800;DHT22;22752;51.960;5.886;2022-08-25T00:14:05;23.50;96.40
36800;DHT22;22752;51.960;5.886;2022-08-25T00:16:32;23.50;96.20
36800;DHT22;22752;51.960;5.886;2022-08-25T00:19:01;23.50;96.10
36800;DHT22;22752;51.960;5.886;2022-08-25T00:21:28;23.50;95.90
36800;DHT22;22752;51.960;5.886;2022-08-25T00:23:56;23.50;95.80
36800;DHT22;22752;51.960;5.886;2022-08-25T00:26:22;23.50;95.70
36800;DHT22;22752;51.960;5.886;2022-08-25T00:28:47;23.50;95.70
36800;DHT22;22752;51.960;5.886;2022-08-25T00:31:16;23.60;95.50
36800;DHT22;22752;51.960;5.886;2022-08-25T00:33:43;23.60;95.40
36800;DHT22;22752;51.960;5.886;2022-08-25T00:36:10;23.50;95.50
36800;DHT22;22752;51.960;5.886;2022-08-25T00:38:39;23.50;95.50
36800;DHT22;22752;51.960;5.886;2022-08-25T00:41:06;23.40;95.60
36800;DHT22;22752;51.960;5.886;2022-08-25T00:43:49;23.40;95.70
36800;DHT22;22752;51.960;5.886;2022-08-25T00:46:20;23.30;95.60
36800;DHT22;22752;51.960;5.886;2022-08-25T00:48:50;23.30;95.70
36800;DHT22;22752;51.960;5.886;2022-08-25T00:51:23;23.20;95.70
36800;DHT22;22752;51.960;5.886;2022-08-25T00:53:50;23.20;95.80
36800;DHT22;22752;51.960;5.886;2022-08-25T00:56:16;23.10;95.80
36800;DHT22;22752;51.960;5.886;2022-08-25T00:58:42;23.00;95.90
36800;DHT22;22752;51.960;5.886;2022-08-25T01:01:08;23.00;95.90
36800;DHT22;22752;51.960;5.886;2022-08-25T01:03:35;23.00;95.90
36800;DHT22;22752;51.960;5.886;2022-08-25T01:06:02;23.00;95.90
36800;DHT22;22752;51.960;5.886;2022-08-25T01:08:28;23.00;95.90
36800;DHT22;22752;51.960;5.886;2022-08-25T01:10:58;22.90;96.00
36800;DHT22;22752;51.960;5.886;2022-08-25T01:13:31;22.90;96.00
36800;DHT22;22752;51.960;5.886;2022-08-25T01:15:58;22.80;96.10
36800;DHT22;22752;51.960;5.886;2022-08-25T01:18:24;22.70;96.10
36800;DHT22;22752;51.960;5.886;2022-08-25T01:20:54;22.70;96.20
36800;DHT22;22752;51.960;5.886;2022-08-25T01:23:21;22.60;96.10
36800;DHT22;22752;51.960;5.886;2022-08-25T01:26:07;22.60;96.10
36800;DHT22;22752;51.960;5.886;2022-08-25T01:28:35;22.60;96.00
36800;DHT22;22752;51.960;5.886;2022-08-25T01:31:02;22.50;95.90
36800;DHT22;22752;51.960;5.886;2022-08-25T01:33:28;22.50;95.90
36800;DHT22;22752;51.960;5.886;2022-08-25T01:35:53;22.50;95.90
36800;DHT22;22752;51.960;5.886;2022-08-25T01:38:19;22.50;95.90
36800;DHT22;22752;51.960;5.886;2022-08-25T01:40:46;22.50;95.80
36800;DHT22;22752;51.960;5.886;2022-08-25T01:45:43;22.40;95.80
36800;DHT22;22752;51.960;5.886;2022-08-25T01:48:10;22.40;95.80
36800;DHT22;22752;51.960;5.886;2022-08-25T01:50:37;22.40;95.80
36800;DHT22;22752;51.960;5.886;2022-08-25T01:53:18;22.40;95.70
36800;DHT22;22752;51.960;5.886;2022-08-25T01:55:46;22.40;95.60
36800;DHT22;22752;51.960;5.886;2022-08-25T01:58:28;22.40;95.60
36800;DHT22;22752;51.960;5.886;2022-08-25T02:00:57;22.40;95.40
36800;DHT22;22752;51.960;5.886;2022-08-25T02:03:24;22.50;95.30
36800;DHT22;22752;51.960;5.886;2022-08-25T02:05:51;22.50;95.30
36800;DHT22;22752;51.960;5.886;2022-08-25T02:08:18;22.50;95.30
36800;DHT22;22752;51.960;5.886;2022-08-25T02:10:44;22.60;95.20
36800;DHT22;22752;51.960;5.886;2022-08-25T02:13:11;22.60;95.20
36800;DHT22;22752;51.960;5.886;2022-08-25T02:15:49;22.60;95.00
36800;DHT22;22752;51.960;5.886;2022-08-25T02:18:16;22.60;94.90
36800;DHT22;22752;51.960;5.886;2022-08-25T02:20:48;22.60;95.10
36800;DHT22;22752;51.960;5.886;2022-08-25T02:23:16;22.60;94.80
36800;DHT22;22752;51.960;5.886;2022-08-25T02:25:42;22.60;94.80
36800;DHT22;22752;51.960;5.886;2022-08-25T02:28:09;22.60;94.70
36800;DHT22;22752;51.960;5.886;2022-08-25T02:30:36;22.70;94.60
36800;DHT22;22752;51.960;5.886;2022-08-25T02:33:02;22.70;94.50
36800;DHT22;22752;51.960;5.886;2022-08-25T02:35:29;22.70;94.30
36800;DHT22;22752;51.960;5.886;2022-08-25T02:37:54;22.70;94.70
36800;DHT22;22752;51.960;5.886;2022-08-25T02:40:21;22.70;94.40
36800;DHT22;22752;51.960;5.886;2022-08-25T02:42:47;22.70;94.10
36800;DHT22;22752;51.960;5.886;2022-08-25T02:45:13;22.70;93.90
36800;DHT22;22752;51.960;5.886;2022-08-25T02:47:39;22.70;93.80
36800;DHT22;22752;51.960;5.886;2022-08-25T02:50:06;22.70;93.60
36800;DHT22;22752;51.960;5.886;2022-08-25T02:52:32;22.70;93.50
36800;DHT22;22752;51.960;5.886;2022-08-25T02:55:00;22.70;93.50
36800;DHT22;22752;51.960;5.886;2022-08-25T02:57:28;22.70;93.50
36800;DHT22;22752;51.960;5.886;2022-08-25T02:59:54;22.60;93.40
36800;DHT22;22752;51.960;5.886;2022-08-25T03:02:22;22.60;93.60
36800;DHT22;22752;51.960;5.886;2022-08-25T03:04:49;22.50;93.60
36800;DHT22;22752;51.960;5.886;2022-08-25T03:07:21;22.40;93.70
36800;DHT22;22752;51.960;5.886;2022-08-25T03:09:46;22.40;93.80
36800;DHT22;22752;51.960;5.886;2022-08-25T03:12:12;22.30;93.80
36800;DHT22;22752;51.960;5.886;2022-08-25T03:14:39;22.20;93.80
36800;DHT22;22752;51.960;5.886;2022-08-25T03:17:06;22.20;93.80
36800;DHT22;22752;51.960;5.886;2022-08-25T03:19:32;22.20;93.90
36800;DHT22;22752;51.960;5.886;2022-08-25T03:21:58;22.10;94.20
36800;DHT22;22752;51.960;5.886;2022-08-25T03:24:25;22.00;94.00
36800;DHT22;22752;51.960;5.886;2022-08-25T03:26:51;21.90;94.20
36800;DHT22;22752;51.960;5.886;2022-08-25T03:29:24;21.90;94.20
36800;DHT22;22752;51.960;5.886;2022-08-25T03:31:52;21.80;94.40
36800;DHT22;22752;51.960;5.886;2022-08-25T03:34:22;21.70;94.40
36800;DHT22;22752;51.960;5.886;2022-08-25T03:36:50;21.70;94.50
36800;DHT22;22752;51.960;5.886;2022-08-25T03:39:19;21.70;94.70
36800;DHT22;22752;51.960;5.886;2022-08-25T03:41:48;21.60;94.80
36800;DHT22;22752;51.960;5.886;2022-08-25T03:44:15;21.60;94.80
36800;DHT22;22752;51.960;5.886;2022-08-25T03:46:44;21.60;94.80
36800;DHT22;22752;51.960;5.886;2022-08-25T03:49:15;21.60;94.80
36800;DHT22;22752;51.960;5.886;2022-08-25T03:51:44;21.60;94.80
36800;DHT22;22752;51.960;5.886;2022-08-25T03:54:16;21.60;94.90
36800;DHT22;22752;51.960;5.886;2022-08-25T03:56:43;21.60;94.90
36800;DHT22;22752;51.960;5.886;2022-08-25T03:59:09;21.60;94.90
36800;DHT22;22752;51.960;5.886;2022-08-25T04:01:36;21.60;94.80
36800;DHT22;22752;51.960;5.886;2022-08-25T04:04:06;21.60;94.90
36800;DHT22;22752;51.960;5.886;2022-08-25T04:06:32;21.50;94.90
36800;DHT22;22752;51.960;5.886;2022-08-25T04:08:58;21.50;95.10
36800;DHT22;22752;51.960;5.886;2022-08-25T04:11:26;21.40;95.10
36800;DHT22;22752;51.960;5.886;2022-08-25T04:13:54;21.40;95.20
36800;DHT22;22752;51.960;5.886;2022-08-25T04:16:23;21.30;95.30
36800;DHT22;22752;51.960;5.886;2022-08-25T04:18:53;21.30;95.30
36800;DHT22;22752;51.960;5.886;2022-08-25T04:21:22;21.30;95.30
36800;DHT22;22752;51.960;5.886;2022-08-25T04:23:49;21.30;95.40
36800;DHT22;22752;51.960;5.886;2022-08-25T04:28:50;21.20;95.50
36800;DHT22;22752;51.960;5.886;2022-08-25T04:31:18;21.20;95.50
36800;DHT22;22752;51.960;5.886;2022-08-25T04:33:44;21.20;95.60
36800;DHT22;22752;51.960;5.886;2022-08-25T04:36:13;21.10;95.60
36800;DHT22;22752;51.960;5.886;2022-08-25T04:38:41;21.10;95.70
36800;DHT22;22752;51.960;5.886;2022-08-25T04:41:08;21.10;95.80
36800;DHT22;22752;51.960;5.886;2022-08-25T04:43:37;21.00;95.80
36800;DHT22;22752;51.960;5.886;2022-08-25T04:46:08;21.00;95.80
36800;DHT22;22752;51.960;5.886;2022-08-25T04:48:35;21.00;95.80
36800;DHT22;22752;51.960;5.886;2022-08-25T04:51:10;21.00;95.80
36800;DHT22;22752;51.960;5.886;2022-08-25T04:53:40;21.00;96.00
36800;DHT22;22752;51.960;5.886;2022-08-25T04:56:13;21.00;96.00
36800;DHT22;22752;51.960;5.886;2022-08-25T04:58:40;21.00;96.00
36800;DHT22;22752;51.960;5.886;2022-08-25T05:01:11;21.00;96.00
36800;DHT22;22752;51.960;5.886;2022-08-25T05:03:43;21.00;96.00
36800;DHT22;22752;51.960;5.886;2022-08-25T05:06:10;21.00;96.00
36800;DHT22;22752;51.960;5.886;2022-08-25T05:08:36;20.90;96.10
36800;DHT22;22752;51.960;5.886;2022-08-25T05:11:06;21.00;96.10
36800;DHT22;22752;51.960;5.886;2022-08-25T05:13:33;21.00;96.10
36800;DHT22;22752;51.960;5.886;2022-08-25T05:16:01;21.00;96.00
36800;DHT22;22752;51.960;5.886;2022-08-25T05:18:29;21.10;96.00
36800;DHT22;22752;51.960;5.886;2022-08-25T05:21:00;21.10;95.90
36800;DHT22;22752;51.960;5.886;2022-08-25T05:23:25;21.10;95.80
36800;DHT22;22752;51.960;5.886;2022-08-25T05:25:52;21.20;95.80
36800;DHT22;22752;51.960;5.886;2022-08-25T05:28:21;21.30;95.70
36800;DHT22;22752;51.960;5.886;2022-08-25T05:30:47;21.30;95.60
36800;DHT22;22752;51.960;5.886;2022-08-25T05:33:15;21.60;95.50
36800;DHT22;22752;51.960;5.886;2022-08-25T05:35:41;21.80;95.10
36800;DHT22;22752;51.960;5.886;2022-08-25T05:38:07;21.80;94.90
36800;DHT22;22752;51.960;5.886;2022-08-25T05:40:34;21.90;94.80
36800;DHT22;22752;51.960;5.886;2022-08-25T05:43:00;21.80;94.70
36800;DHT22;22752;51.960;5.886;2022-08-25T05:45:28;21.80;94.80
36800;DHT22;22752;51.960;5.886;2022-08-25T05:47:54;21.80;94.70
36800;DHT22;22752;51.960;5.886;2022-08-25T05:50:19;21.80;94.70
36800;DHT22;22752;51.960;5.886;2022-08-25T05:52:45;21.80;94.70
36800;DHT22;22752;51.960;5.886;2022-08-25T05:55:11;21.90;94.20
36800;DHT22;22752;51.960;5.886;2022-08-25T05:57:36;22.00;94.30
36800;DHT22;22752;51.960;5.886;2022-08-25T06:00:05;22.10;94.40
36800;DHT22;22752;51.960;5.886;2022-08-25T06:02:30;22.60;94.10
36800;DHT22;22752;51.960;5.886;2022-08-25T06:05:06;23.60;93.10
36800;DHT22;22752;51.960;5.886;2022-08-25T06:07:32;24.50;92.30
36800;DHT22;22752;51.960;5.886;2022-08-25T06:09:58;25.30;91.30
36800;DHT22;22752;51.960;5.886;2022-08-25T06:12:24;25.90;90.40
36800;DHT22;22752;51.960;5.886;2022-08-25T06:14:50;26.50;90.10
36800;DHT22;22752;51.960;5.886;2022-08-25T06:17:15;27.00;89.30
36800;DHT22;22752;51.960;5.886;2022-08-25T06:19:42;27.40;88.40
36800;DHT22;22752;51.960;5.886;2022-08-25T06:22:08;27.90;87.80
36800;DHT22;22752;51.960;5.886;2022-08-25T06:24:33;28.30;87.40
36800;DHT22;22752;51.960;5.886;2022-08-25T06:27:00;28.70;85.30
36800;DHT22;22752;51.960;5.886;2022-08-25T06:29:26;28.70;83.30
36800;DHT22;22752;51.960;5.886;2022-08-25T06:31:52;28.80;82.70
36800;DHT22;22752;51.960;5.886;2022-08-25T06:34:18;29.10;80.90
36800;DHT22;22752;51.960;5.886;2022-08-25T06:36:46;29.20;81.20
36800;DHT22;22752;51.960;5.886;2022-08-25T06:39:22;29.50;81.20
36800;DHT22;22752;51.960;5.886;2022-08-25T06:41:55;29.80;79.80
36800;DHT22;22752;51.960;5.886;2022-08-25T06:44:22;29.90;78.50
36800;DHT22;22752;51.960;5.886;2022-08-25T06:46:48;29.70;77.90
36800;DHT22;22752;51.960;5.886;2022-08-25T06:49:15;29.70;78.60
36800;DHT22;22752;51.960;5.886;2022-08-25T06:51:40;29.90;78.80
36800;DHT22;22752;51.960;5.886;2022-08-25T06:54:07;30.10;77.70
36800;DHT22;22752;51.960;5.886;2022-08-25T06:56:34;30.30;77.90
36800;DHT22;22752;51.960;5.886;2022-08-25T06:59:04;30.50;78.10
36800;DHT22;22752;51.960;5.886;2022-08-25T07:01:33;30.70;77.50
36800;DHT22;22752;51.960;5.886;2022-08-25T07:04:01;30.80;76.40
36800;DHT22;22752;51.960;5.886;2022-08-25T07:06:29;30.80;76.40
36800;DHT22;22752;51.960;5.886;2022-08-25T07:08:56;31.10;76.20
36800;DHT22;22752;51.960;5.886;2022-08-25T07:11:21;31.20;76.20
36800;DHT22;22752;51.960;5.886;2022-08-25T07:13:48;31.40;75.20
36800;DHT22;22752;51.960;5.886;2022-08-25T07:16:14;31.50;74.90
36800;DHT22;22752;51.960;5.886;2022-08-25T07:18:40;31.50;73.90
36800;DHT22;22752;51.960;5.886;2022-08-25T07:21:06;31.30;73.60
36800;DHT22;22752;51.960;5.886;2022-08-25T07:23:32;31.30;74.00
36800;DHT22;22752;51.960;5.886;2022-08-25T07:26:10;31.50;73.40
36800;DHT22;22752;51.960;5.886;2022-08-25T07:28:36;31.50;73.70
36800;DHT22;22752;51.960;5.886;2022-08-25T07:31:03;31.50;73.60
36800;DHT22;22752;51.960;5.886;2022-08-25T07:33:29;31.50;73.00
36800;DHT22;22752;51.960;5.886;2022-08-25T07:35:55;31.60;72.80
36800;DHT22;22752;51.960;5.886;2022-08-25T07:38:22;31.40;72.80
36800;DHT22;22752;51.960;5.886;2022-08-25T07:40:48;31.50;73.60
36800;DHT22;22752;51.960;5.886;2022-08-25T07:43:20;31.50;72.60
36800;DHT22;22752;51.960;5.886;2022-08-25T07:45:48;31.50;73.20
36800;DHT22;22752;51.960;5.886;2022-08-25T07:48:14;31.60;72.80
36800;DHT22;22752;51.960;5.886;2022-08-25T07:50:42;31.60;72.10
36800;DHT22;22752;51.960;5.886;2022-08-25T07:53:10;31.50;72.30
36800;DHT22;22752;51.960;5.886;2022-08-25T07:55:37;31.50;72.60
36800;DHT22;22752;51.960;5.886;2022-08-25T07:58:07;31.40;72.80
36800;DHT22;22752;51.960;5.886;2022-08-25T08:00:34;31.50;72.60
36800;DHT22;22752;51.960;5.886;2022-08-25T08:03:05;31.40;72.90
36800;DHT22;22752;51.960;5.886;2022-08-25T08:05:31;31.30;72.30
36800;DHT22;22752;51.960;5.886;2022-08-25T08:07:57;31.10;71.70
36800;DHT22;22752;51.960;5.886;2022-08-25T08:10:24;30.90;72.40
36800;DHT22;22752;51.960;5.886;2022-08-25T08:12:51;30.70;72.60
36800;DHT22;22752;51.960;5.886;2022-08-25T08:15:17;30.60;72.80
36800;DHT22;22752;51.960;5.886;2022-08-25T08:17:44;30.60;72.80
36800;DHT22;22752;51.960;5.886;2022-08-25T08:20:11;30.70;72.40
36800;DHT22;22752;51.960;5.886;2022-08-25T08:22:40;30.60;72.10
36800;DHT22;22752;51.960;5.886;2022-08-25T08:25:07;30.50;72.70
36800;DHT22;22752;51.960;5.886;2022-08-25T08:27:34;30.70;73.20
36800;DHT22;22752;51.960;5.886;2022-08-25T08:30:00;30.90;73.10
36800;DHT22;22752;51.960;5.886;2022-08-25T08:32:26;31.10;72.20
36800;DHT22;22752;51.960;5.886;2022-08-25T08:34:52;31.40;72.10
36800;DHT22;22752;51.960;5.886;2022-08-25T08:37:18;31.70;72.40
36800;DHT22;22752;51.960;5.886;2022-08-25T08:39:44;32.00;71.70
36800;DHT22;22752;51.960;5.886;2022-08-25T08:48:01;32.20;69.60
36800;DHT22;22752;51.960;5.886;2022-08-25T08:50:49;32.00;69.60
36800;DHT22;22752;51.960;5.886;2022-08-25T08:53:24;31.60;70.20
36800;DHT22;22752;51.960;5.886;2022-08-25T08:55:56;31.20;71.20
36800;DHT22;22752;51.960;5.886;2022-08-25T08:58:27;31.00;71.80
36800;DHT22;22752;51.960;5.886;2022-08-25T09:00:55;30.90;72.40
36800;DHT22;22752;51.960;5.886;2022-08-25T09:03:35;30.70;72.70
36800;DHT22;22752;51.960;5.886;2022-08-25T09:06:08;30.50;73.00
36800;DHT22;22752;51.960;5.886;2022-08-25T09:08:36;30.40;73.10
36800;DHT22;22752;51.960;5.886;2022-08-25T09:16:41;29.90;73.00
36800;DHT22;22752;51.960;5.886;2022-08-25T09:30:13;29.70;74.80
36800;DHT22;22752;51.960;5.886;2022-08-25T09:32:44;29.70;75.30
36800;DHT22;22752;51.960;5.886;2022-08-25T09:35:28;29.60;75.50
36800;DHT22;22752;51.960;5.886;2022-08-25T09:40:21;29.60;76.10
36800;DHT22;22752;51.960;5.886;2022-08-25T09:42:51;29.70;76.50
36800;DHT22;22752;51.960;5.886;2022-08-25T09:47:56;29.80;76.50
36800;DHT22;22752;51.960;5.886;2022-08-25T09:50:21;29.70;76.00
36800;DHT22;22752;51.960;5.886;2022-08-25T09:52:47;29.70;75.70
36800;DHT22;22752;51.960;5.886;2022-08-25T10:00:14;29.70;74.70
36800;DHT22;22752;51.960;5.886;2022-08-25T10:02:41;29.70;73.40
36800;DHT22;22752;51.960;5.886;2022-08-25T10:05:23;29.70;73.00
36800;DHT22;22752;51.960;5.886;2022-08-25T10:07:56;29.80;72.80
36800;DHT22;22752;51.960;5.886;2022-08-25T10:10:30;29.80;72.40
36800;DHT22;22752;51.960;5.886;2022-08-25T10:12:56;29.90;72.50
36800;DHT22;22752;51.960;5.886;2022-08-25T10:15:34;29.90;71.90
36800;DHT22;22752;51.960;5.886;2022-08-25T10:18:22;30.00;72.90
36800;DHT22;22752;51.960;5.886;2022-08-25T10:21:05;30.00;71.10
36800;DHT22;22752;51.960;5.886;2022-08-25T10:23:36;30.00;71.40
36800;DHT22;22752;51.960;5.886;2022-08-25T10:26:09;30.10;71.50
36800;DHT22;22752;51.960;5.886;2022-08-25T10:28:52;30.10;71.20
36800;DHT22;22752;51.960;5.886;2022-08-25T10:31:35;30.10;70.40
36800;DHT22;22752;51.960;5.886;2022-08-25T10:37:01;30.30;70.40
36800;DHT22;22752;51.960;5.886;2022-08-25T10:40:00;30.30;70.00
36800;DHT22;22752;51.960;5.886;2022-08-25T10:56:49;30.50;68.80
36800;DHT22;22752;51.960;5.886;2022-08-25T11:05:10;30.60;66.90
36800;DHT22;22752;51.960;5.886;2022-08-25T11:07:40;30.60;67.10
36800;DHT22;22752;51.960;5.886;2022-08-25T11:10:23;30.60;67.40
36800;DHT22;22752;51.960;5.886;2022-08-25T11:12:56;30.60;68.00
36800;DHT22;22752;51.960;5.886;2022-08-25T11:15:35;30.60;66.90
36800;DHT22;22752;51.960;5.886;2022-08-25T11:18:06;30.70;66.30
36800;DHT22;22752;51.960;5.886;2022-08-25T11:23:38;30.70;65.90
36800;DHT22;22752;51.960;5.886;2022-08-25T11:26:16;30.80;66.50
36800;DHT22;22752;51.960;5.886;2022-08-25T11:28:56;30.90;67.20
36800;DHT22;22752;51.960;5.886;2022-08-25T11:31:25;30.90;67.00
36800;DHT22;22752;51.960;5.886;2022-08-25T11:33:53;31.00;66.60
36800;DHT22;22752;51.960;5.886;2022-08-25T11:36:35;31.00;66.10
36800;DHT22;22752;51.960;5.886;2022-08-25T11:39:15;31.00;66.20
36800;DHT22;22752;51.960;5.886;2022-08-25T11:44:46;31.10;66.20
36800;DHT22;22752;51.960;5.886;2022-08-25T11:47:22;31.10;65.80
36800;DHT22;22752;51.960;5.886;2022-08-25T11:50:04;31.00;65.50
36800;DHT22;22752;51.960;5.886;2022-08-25T11:57:36;31.10;65.20
36800;DHT22;22752;51.960;5.886;2022-08-25T12:00:12;31.20;64.80
36800;DHT22;22752;51.960;5.886;2022-08-25T12:02:44;31.20;65.40
36800;DHT22;22752;51.960;5.886;2022-08-25T12:13:37;31.40;64.40
36800;DHT22;22752;51.960;5.886;2022-08-25T12:16:03;31.40;64.40
36800;DHT22;22752;51.960;5.886;2022-08-25T12:18:42;31.50;63.50
36800;DHT22;22752;51.960;5.886;2022-08-25T12:21:10;31.50;63.60
36800;DHT22;22752;51.960;5.886;2022-08-25T12:23:42;31.60;63.60
36800;DHT22;22752;51.960;5.886;2022-08-25T12:34:53;32.00;63.50
36800;DHT22;22752;51.960;5.886;2022-08-25T12:37:28;32.10;62.30
36800;DHT22;22752;51.960;5.886;2022-08-25T12:39:58;32.10;62.30
36800;DHT22;22752;51.960;5.886;2022-08-25T12:47:52;32.00;62.50
36800;DHT22;22752;51.960;5.886;2022-08-25T12:50:38;32.10;62.50
36800;DHT22;22752;51.960;5.886;2022-08-25T12:53:14;32.10;62.30
36800;DHT22;22752;51.960;5.886;2022-08-25T12:55:50;32.00;62.20
36800;DHT22;22752;51.960;5.886;2022-08-25T12:58:17;31.90;62.50
36800;DHT22;22752;51.960;5.886;2022-08-25T13:11:30;31.20;63.80
36800;DHT22;22752;51.960;5.886;2022-08-25T13:16:39;31.20;62.80
36800;DHT22;22752;51.960;5.886;2022-08-25T13:19:18;31.30;63.50
36800;DHT22;22752;51.960;5.886;2022-08-25T13:21:44;31.40;63.50
36800;DHT22;22752;51.960;5.886;2022-08-25T13:24:25;31.50;62.80
36800;DHT22;22752;51.960;5.886;2022-08-25T13:26:55;31.70;62.90
36800;DHT22;22752;51.960;5.886;2022-08-25T13:29:30;31.70;62.70
36800;DHT22;22752;51.960;5.886;2022-08-25T13:32:02;31.80;62.50
36800;DHT22;22752;51.960;5.886;2022-08-25T13:34:35;31.80;62.10
36800;DHT22;22752;51.960;5.886;2022-08-25T13:42:47;31.90;61.90
36800;DHT22;22752;51.960;5.886;2022-08-25T13:45:20;31.90;62.50
36800;DHT22;22752;51.960;5.886;2022-08-25T13:47:47;32.00;61.80
36800;DHT22;22752;51.960;5.886;2022-08-25T13:50:36;32.00;61.20
36800;DHT22;22752;51.960;5.886;2022-08-25T13:53:13;32.00;61.20
36800;DHT22;22752;51.960;5.886;2022-08-25T13:58:14;32.00;60.80
36800;DHT22;22752;51.960;5.886;2022-08-25T14:01:05;32.00;61.20
36800;DHT22;22752;51.960;5.886;2022-08-25T14:03:35;32.10;61.30
36800;DHT22;22752;51.960;5.886;2022-08-25T14:06:20;32.20;61.20
36800;DHT22;22752;51.960;5.886;2022-08-25T14:11:56;32.40;60.60
36800;DHT22;22752;51.960;5.886;2022-08-25T14:17:08;32.50;60.00
36800;DHT22;22752;51.960;5.886;2022-08-25T14:19:36;32.50;60.10
36800;DHT22;22752;51.960;5.886;2022-08-25T14:22:08;32.50;60.20
36800;DHT22;22752;51.960;5.886;2022-08-25T14:24:34;32.50;59.90
36800;DHT22;22752;51.960;5.886;2022-08-25T14:27:01;32.50;60.20
36800;DHT22;22752;51.960;5.886;2022-08-25T14:29:28;32.40;60.00
36800;DHT22;22752;51.960;5.886;2022-08-25T14:31:54;32.30;59.90
36800;DHT22;22752;51.960;5.886;2022-08-25T14:34:23;32.30;60.30
36800;DHT22;22752;51.960;5.886;2022-08-25T14:36:50;32.30;60.00
36800;DHT22;22752;51.960;5.886;2022-08-25T14:39:17;32.30;59.30
36800;DHT22;22752;51.960;5.886;2022-08-25T14:41:43;32.40;59.80
36800;DHT22;22752;51.960;5.886;2022-08-25T14:44:13;32.40;59.80
36800;DHT22;22752;51.960;5.886;2022-08-25T14:46:50;32.30;59.70
36800;DHT22;22752;51.960;5.886;2022-08-25T14:49:24;32.30;60.40
36800;DHT22;22752;51.960;5.886;2022-08-25T14:51:55;32.30;60.20
36800;DHT22;22752;51.960;5.886;2022-08-25T14:54:25;32.30;60.30
36800;DHT22;22752;51.960;5.886;2022-08-25T14:56:51;32.20;60.00
36800;DHT22;22752;51.960;5.886;2022-08-25T14:59:17;32.10;60.00
36800;DHT22;22752;51.960;5.886;2022-08-25T15:01:43;32.10;59.90
36800;DHT22;22752;51.960;5.886;2022-08-25T15:04:15;32.10;60.10
36800;DHT22;22752;51.960;5.886;2022-08-25T15:06:42;32.00;60.00
36800;DHT22;22752;51.960;5.886;2022-08-25T15:09:11;31.90;59.50
36800;DHT22;22752;51.960;5.886;2022-08-25T15:11:46;31.80;59.80
36800;DHT22;22752;51.960;5.886;2022-08-25T15:14:15;31.70;60.10
36800;DHT22;22752;51.960;5.886;2022-08-25T15:16:47;31.60;59.30
36800;DHT22;22752;51.960;5.886;2022-08-25T15:19:15;31.60;59.70
36800;DHT22;22752;51.960;5.886;2022-08-25T15:21:43;31.50;59.90
36800;DHT22;22752;51.960;5.886;2022-08-25T15:24:10;31.50;59.80
36800;DHT22;22752;51.960;5.886;2022-08-25T15:26:42;31.50;59.60
36800;DHT22;22752;51.960;5.886;2022-08-25T15:29:09;31.40;59.70
36800;DHT22;22752;51.960;5.886;2022-08-25T15:31:35;31.40;59.50
36800;DHT22;22752;51.960;5.886;2022-08-25T15:34:00;31.40;59.60
36800;DHT22;22752;51.960;5.886;2022-08-25T15:36:26;31.40;59.30
36800;DHT22;22752;51.960;5.886;2022-08-25T15:38:52;31.40;59.60
36800;DHT22;22752;51.960;5.886;2022-08-25T15:41:18;31.30;59.50
36800;DHT22;22752;51.960;5.886;2022-08-25T15:43:47;31.30;59.20
36800;DHT22;22752;51.960;5.886;2022-08-25T15:46:16;31.30;58.90
36800;DHT22;22752;51.960;5.886;2022-08-25T15:48:44;31.30;58.60
36800;DHT22;22752;51.960;5.886;2022-08-25T15:51:10;31.30;58.90
36800;DHT22;22752;51.960;5.886;2022-08-25T15:53:37;31.30;59.10
36800;DHT22;22752;51.960;5.886;2022-08-25T15:56:06;31.20;59.00
36800;DHT22;22752;51.960;5.886;2022-08-25T15:58:32;31.20;59.10
36800;DHT22;22752;51.960;5.886;2022-08-25T16:01:00;31.00;59.20
36800;DHT22;22752;51.960;5.886;2022-08-25T16:03:25;31.00;59.50
36800;DHT22;22752;51.960;5.886;2022-08-25T16:05:51;30.90;59.70
36800;DHT22;22752;51.960;5.886;2022-08-25T16:08:26;30.80;60.30
36800;DHT22;22752;51.960;5.886;2022-08-25T16:10:52;30.80;60.60
36800;DHT22;22752;51.960;5.886;2022-08-25T16:13:17;30.80;60.60
36800;DHT22;22752;51.960;5.886;2022-08-25T16:15:46;30.80;60.10
36800;DHT22;22752;51.960;5.886;2022-08-25T16:18:12;30.70;60.10
36800;DHT22;22752;51.960;5.886;2022-08-25T16:20:44;30.60;60.50
36800;DHT22;22752;51.960;5.886;2022-08-25T16:23:11;30.60;61.20
36800;DHT22;22752;51.960;5.886;2022-08-25T16:25:41;30.50;61.60
36800;DHT22;22752;51.960;5.886;2022-08-25T16:28:09;30.40;62.00
36800;DHT22;22752;51.960;5.886;2022-08-25T16:30:35;30.30;62.10
36800;DHT22;22752;51.960;5.886;2022-08-25T16:33:01;30.30;62.30
36800;DHT22;22752;51.960;5.886;2022-08-25T16:35:30;30.20;62.50
36800;DHT22;22752;51.960;5.886;2022-08-25T16:37:58;30.20;62.90
36800;DHT22;22752;51.960;5.886;2022-08-25T16:40:27;30.10;62.70
36800;DHT22;22752;51.960;5.886;2022-08-25T16:42:56;30.10;62.80
36800;DHT22;22752;51.960;5.886;2022-08-25T16:45:24;30.00;62.40
36800;DHT22;22752;51.960;5.886;2022-08-25T16:47:52;30.00;62.80
36800;DHT22;22752;51.960;5.886;2022-08-25T16:50:18;29.90;62.90
36800;DHT22;22752;51.960;5.886;2022-08-25T16:52:43;29.80;63.00
36800;DHT22;22752;51.960;5.886;2022-08-25T16:55:28;29.80;62.90
36800;DHT22;22752;51.960;5.886;2022-08-25T16:58:01;29.70;63.70
36800;DHT22;22752;51.960;5.886;2022-08-25T17:00:28;29.60;64.00
36800;DHT22;22752;51.960;5.886;2022-08-25T17:02:58;29.50;64.70
36800;DHT22;22752;51.960;5.886;2022-08-25T17:05:27;29.40;64.70
36800;DHT22;22752;51.960;5.886;2022-08-25T17:08:05;29.30;64.40
36800;DHT22;22752;51.960;5.886;2022-08-25T17:10:52;29.30;63.90
36800;DHT22;22752;51.960;5.886;2022-08-25T17:13:20;29.20;63.90
36800;DHT22;22752;51.960;5.886;2022-08-25T17:15:46;29.20;63.90
36800;DHT22;22752;51.960;5.886;2022-08-25T17:18:15;29.10;64.30
36800;DHT22;22752;51.960;5.886;2022-08-25T17:20:43;29.00;65.10
36800;DHT22;22752;51.960;5.886;2022-08-25T17:23:13;28.90;66.60
36800;DHT22;22752;51.960;5.886;2022-08-25T17:25:42;28.70;67.70
36800;DHT22;22752;51.960;5.886;2022-08-25T17:28:10;28.50;68.80
36800;DHT22;22752;51.960;5.886;2022-08-25T17:30:47;28.40;69.50
36800;DHT22;22752;51.960;5.886;2022-08-25T17:33:14;28.20;70.00
36800;DHT22;22752;51.960;5.886;2022-08-25T17:35:41;28.00;71.10
36800;DHT22;22752;51.960;5.886;2022-08-25T17:38:08;27.90;71.80
36800;DHT22;22752;51.960;5.886;2022-08-25T17:40:34;27.70;72.90
36800;DHT22;22752;51.960;5.886;2022-08-25T17:43:00;27.60;73.90
36800;DHT22;22752;51.960;5.886;2022-08-25T17:45:26;27.40;74.80